createdAt,value
2023-05-15T00:00:55.315Z,7.13
2023-05-15T00:03:58.166Z,7.93
2023-05-15T00:07:02.383Z,6.60
2023-05-15T00:10:05.834Z,6.43
2023-05-15T00:13:08.717Z,6.70
2023-05-15T00:16:11.688Z,5.88
2023-05-15T00:19:15.030Z,7.78
2023-05-15T00:22:19.381Z,6.50
2023-05-15T00:25:22.161Z,7.47
2023-05-15T00:28:24.887Z,6.40
2023-05-15T00:31:27.689Z,5.85
2023-05-15T00:34:31.086Z,6.43
2023-05-15T00:37:35.197Z,9.20
2023-05-15T00:40:40.819Z,5.15
2023-05-15T00:43:44.958Z,6.45
2023-05-15T00:46:48.183Z,7.22
2023-05-15T00:49:51.931Z,7.75
2023-05-15T00:52:56.928Z,6.97
2023-05-15T00:56:00.221Z,4.93
2023-05-15T00:59:04.906Z,5.65
2023-05-15T01:02:08.927Z,5.78
2023-05-15T01:05:11.936Z,8.40
2023-05-15T01:08:22.677Z,6.35
2023-05-15T01:11:35.808Z,9.75
2023-05-15T01:14:39.858Z,6.97
2023-05-15T01:17:42.742Z,5.93
2023-05-15T01:20:56.255Z,4.85
2023-05-15T01:31:20.297Z,6.57
2023-05-15T01:34:30.046Z,6.22
2023-05-15T01:37:36.241Z,5.28
2023-05-15T01:40:39.272Z,4.90
2023-05-15T01:43:47.772Z,8.23
2023-05-15T01:46:55.798Z,6.90
2023-05-15T01:50:01.976Z,5.43
2023-05-15T01:53:08.665Z,3.88
2023-05-15T01:56:14.255Z,5.38
2023-05-15T01:59:18.855Z,6.50
2023-05-15T02:02:23.821Z,5.03
2023-05-15T02:05:28.247Z,5.28
2023-05-15T02:08:32.020Z,5.07
2023-05-15T02:11:36.022Z,7.03
2023-05-15T02:14:41.627Z,6.35
2023-05-15T02:17:46.192Z,5.47
2023-05-15T02:20:49.109Z,6.50
2023-05-15T02:23:51.890Z,5.70
2023-05-15T02:27:01.726Z,4.75
2023-05-15T02:30:19.767Z,4.72
2023-05-15T02:33:31.284Z,5.85
2023-05-15T02:36:38.147Z,4.60
2023-05-15T02:39:43.354Z,4.63
2023-05-15T02:42:48.221Z,5.55
2023-05-15T02:45:53.633Z,5.32
2023-05-15T02:48:58.021Z,4.80
2023-05-15T02:52:00.805Z,3.75
2023-05-15T02:55:03.723Z,5.20
2023-05-15T02:58:06.775Z,6.55
2023-05-15T03:01:09.658Z,5.50
2023-05-15T03:04:14.975Z,4.65
2023-05-15T03:07:17.786Z,4.10
2023-05-15T03:10:21.222Z,5.63
2023-05-15T03:13:24.021Z,5.60
2023-05-15T03:16:26.888Z,3.45
2023-05-15T03:19:31.207Z,5.15
2023-05-15T03:22:34.248Z,6.55
2023-05-15T03:25:37.048Z,4.82
2023-05-15T03:28:41.653Z,4.15
2023-05-15T03:31:45.035Z,4.15
2023-05-15T03:34:49.192Z,3.35
2023-05-15T03:37:52.005Z,4.50
2023-05-15T03:40:54.776Z,4.85
2023-05-15T03:43:57.568Z,4.10
2023-05-15T03:47:00.432Z,5.40
2023-05-15T03:50:05.057Z,4.97
2023-05-15T03:53:09.613Z,2.65
2023-05-15T03:56:12.424Z,3.95
2023-05-15T03:59:15.246Z,4.38
2023-05-15T04:02:18.057Z,3.72
2023-05-15T04:05:22.744Z,3.30
2023-05-15T04:08:25.631Z,4.10
2023-05-15T04:11:28.579Z,4.13
2023-05-15T04:14:31.412Z,4.43
2023-05-15T04:17:34.289Z,4.88
2023-05-15T04:20:38.575Z,3.92
2023-05-15T04:23:41.649Z,3.63
2023-05-15T04:26:44.509Z,2.95
2023-05-15T04:29:47.363Z,2.92
2023-05-15T04:32:51.757Z,3.60
2023-05-15T04:35:56.253Z,3.47
2023-05-15T04:38:59.123Z,3.88
2023-05-15T04:42:02.343Z,3.47
2023-05-15T04:45:06.327Z,4.45
2023-05-15T04:48:09.150Z,3.95
2023-05-15T04:51:13.353Z,6.35
2023-05-15T04:54:16.263Z,3.08
2023-05-15T04:57:18.996Z,3.25
2023-05-15T05:00:21.914Z,4.22
2023-05-15T05:03:24.913Z,4.03
2023-05-15T05:06:30.439Z,3.28
2023-05-15T05:09:33.470Z,4.82
2023-05-15T05:12:36.206Z,4.03
2023-05-15T05:15:39.029Z,4.65
2023-05-15T05:18:41.852Z,3.22
2023-05-15T05:21:45.990Z,3.00
2023-05-15T05:24:48.785Z,3.47
2023-05-15T05:27:51.927Z,2.92
2023-05-15T05:30:54.666Z,4.90
2023-05-15T05:33:57.493Z,4.00
2023-05-15T05:37:01.748Z,3.83
2023-05-15T05:40:06.363Z,4.03
2023-05-15T05:43:09.325Z,4.38
2023-05-15T05:46:12.169Z,5.65
2023-05-15T05:49:14.928Z,4.60
2023-05-15T05:52:19.110Z,3.03
2023-05-15T05:55:21.902Z,3.55
2023-05-15T05:58:25.855Z,3.35
2023-05-15T06:01:29.188Z,3.05
2023-05-15T06:04:33.299Z,4.57
2023-05-15T06:07:37.514Z,3.50
2023-05-15T06:10:40.558Z,4.13
2023-05-15T06:13:43.499Z,3.38
2023-05-15T06:16:46.412Z,4.60
2023-05-15T06:19:49.209Z,3.20
2023-05-15T06:22:53.436Z,4.20
2023-05-15T06:25:56.339Z,4.22
2023-05-15T06:28:59.183Z,3.80
2023-05-15T06:32:02.209Z,2.72
2023-05-15T06:35:05.440Z,3.30
2023-05-15T06:38:09.619Z,3.95
2023-05-15T06:41:12.350Z,3.25
2023-05-15T06:44:15.092Z,3.10
2023-05-15T06:47:17.882Z,9.13
2023-05-15T06:50:20.945Z,12.35
2023-05-15T06:53:25.208Z,8.77
2023-05-15T06:56:27.924Z,11.75
2023-05-15T06:59:34.558Z,6.78
2023-05-15T07:02:37.315Z,6.20
2023-05-15T07:05:40.100Z,7.80
2023-05-15T07:08:44.249Z,9.13
2023-05-15T07:11:46.979Z,9.23
2023-05-15T07:14:49.787Z,9.35
2023-05-15T07:17:52.729Z,6.22
2023-05-15T07:20:55.520Z,8.70
2023-05-15T07:23:59.673Z,9.68
2023-05-15T07:27:02.442Z,6.93
2023-05-15T07:30:06.593Z,7.45
2023-05-15T07:33:09.372Z,7.88
2023-05-15T07:36:12.180Z,8.65
2023-05-15T07:39:16.472Z,11.52
2023-05-15T07:42:19.395Z,7.13
2023-05-15T07:45:22.472Z,6.25
2023-05-15T07:48:25.634Z,5.80
2023-05-15T07:51:28.382Z,5.68
2023-05-15T07:54:32.792Z,4.18
2023-05-15T07:57:36.199Z,6.78
2023-05-15T08:00:39.159Z,5.15
2023-05-15T08:03:42.095Z,5.50
2023-05-15T08:06:44.926Z,5.70
2023-05-15T08:09:49.198Z,5.65
2023-05-15T08:12:51.959Z,5.43
2023-05-15T08:15:54.806Z,6.88
2023-05-15T08:19:01.375Z,6.03
2023-05-15T08:22:04.371Z,5.05
2023-05-15T08:25:09.794Z,5.72
2023-05-15T08:28:12.647Z,9.57
2023-05-15T08:31:15.975Z,6.22
2023-05-15T08:34:19.091Z,4.35
2023-05-15T08:37:21.821Z,6.68
2023-05-15T08:40:38.484Z,7.35
2023-05-15T08:43:44.031Z,6.22
2023-05-15T08:46:48.609Z,7.57
2023-05-15T08:50:00.542Z,5.55
2023-05-15T08:53:03.704Z,6.30
2023-05-15T08:56:08.194Z,6.43
2023-05-15T08:59:11.644Z,6.95
2023-05-15T09:02:14.492Z,7.68
2023-05-15T09:05:17.311Z,12.05
2023-05-15T09:08:22.797Z,12.65
2023-05-15T09:11:27.948Z,6.32
2023-05-15T09:14:30.957Z,9.95
2023-05-15T09:17:34.166Z,7.97
2023-05-15T09:20:39.027Z,12.40
2023-05-15T09:23:41.980Z,11.07
2023-05-15T09:26:47.435Z,7.35
2023-05-15T09:29:51.761Z,6.88
2023-05-15T09:32:54.723Z,10.00
2023-05-15T09:35:57.589Z,8.55
2023-05-15T09:39:01.708Z,9.40
2023-05-15T09:42:09.826Z,6.70
2023-05-15T09:45:19.074Z,8.70
2023-05-15T09:48:22.329Z,10.43
2023-05-15T09:51:25.171Z,7.60
2023-05-15T09:54:29.926Z,9.73
2023-05-15T09:57:34.061Z,8.68
2023-05-15T10:00:47.609Z,9.85
2023-05-15T10:03:59.818Z,8.05
2023-05-15T10:07:02.566Z,9.20
2023-05-15T10:10:06.396Z,15.05
2023-05-15T10:13:10.941Z,10.57
2023-05-15T10:16:15.498Z,7.45
2023-05-15T10:19:23.824Z,8.07
2023-05-15T10:22:30.805Z,5.82
2023-05-15T10:25:42.200Z,7.90
2023-05-15T10:28:47.638Z,10.43
2023-05-15T10:31:51.974Z,6.63
2023-05-15T10:34:55.401Z,8.65
2023-05-15T10:37:58.874Z,8.52
2023-05-15T10:41:15.739Z,6.05
2023-05-15T10:44:21.502Z,9.25
2023-05-15T10:47:24.604Z,8.13
2023-05-15T10:50:28.345Z,9.05
2023-05-15T10:53:32.742Z,6.32
2023-05-15T10:56:35.751Z,10.43
2023-05-15T10:59:41.436Z,6.80
2023-05-15T11:02:44.352Z,10.48
2023-05-15T11:06:09.816Z,8.10
2023-05-15T11:09:40.315Z,8.38
2023-05-15T11:13:02.332Z,5.72
2023-05-15T11:16:07.292Z,9.93
2023-05-15T11:19:23.223Z,6.75
2023-05-15T11:22:31.512Z,9.77
2023-05-15T11:25:36.448Z,9.15
2023-05-15T11:28:44.832Z,9.00
2023-05-15T11:31:48.996Z,5.97
2023-05-15T11:34:52.511Z,7.65
2023-05-15T11:37:57.088Z,9.35
2023-05-15T11:41:03.367Z,6.45
2023-05-15T11:44:06.287Z,6.45
2023-05-15T11:47:12.462Z,7.70
2023-05-15T11:50:17.113Z,8.45
2023-05-15T11:53:20.704Z,8.23
2023-05-15T11:56:25.815Z,8.15
2023-05-15T11:59:28.830Z,6.47
2023-05-15T12:02:33.138Z,7.10
2023-05-15T12:05:36.987Z,6.03
2023-05-15T12:08:42.069Z,5.97
2023-05-15T12:11:50.292Z,8.73
2023-05-15T12:14:53.046Z,8.82
2023-05-15T12:17:57.232Z,8.80
2023-05-15T12:21:00.590Z,12.32
2023-05-15T12:24:08.056Z,7.32
2023-05-15T12:27:11.883Z,6.35
2023-05-15T12:30:15.554Z,7.43
2023-05-15T12:33:20.153Z,5.90
2023-05-15T12:36:23.035Z,6.00
2023-05-15T12:39:25.877Z,6.40
2023-05-15T12:42:28.708Z,4.28
2023-05-15T12:45:33.082Z,9.65
2023-05-15T12:48:37.419Z,7.82
2023-05-15T12:51:43.785Z,6.28
2023-05-15T12:54:47.197Z,6.38
2023-05-15T12:57:50.334Z,8.02
2023-05-15T13:00:53.354Z,5.80
2023-05-15T13:03:58.567Z,7.18
2023-05-15T13:07:01.430Z,12.18
2023-05-15T13:10:06.942Z,11.43
2023-05-15T13:13:09.739Z,8.15
2023-05-15T13:16:23.090Z,6.53
2023-05-15T13:19:27.311Z,3.47
2023-05-15T13:22:30.137Z,12.93
2023-05-15T13:25:33.439Z,5.28
2023-05-15T13:28:36.495Z,5.85
2023-05-15T13:31:39.367Z,7.07
2023-05-15T13:34:43.608Z,6.00
2023-05-15T13:37:47.546Z,5.32
2023-05-15T13:40:50.374Z,3.15
2023-05-15T13:43:53.187Z,5.90
2023-05-15T13:46:55.973Z,6.47
2023-05-15T13:50:00.273Z,5.78
2023-05-15T13:53:03.631Z,4.40
2023-05-15T13:56:07.152Z,4.85
2023-05-15T13:59:09.900Z,4.57
2023-05-15T14:02:12.666Z,6.18
2023-05-15T14:05:17.976Z,11.15
2023-05-15T14:08:21.138Z,4.05
2023-05-15T14:11:23.908Z,4.68
2023-05-15T14:14:26.712Z,7.63
2023-05-15T14:17:29.673Z,4.93
2023-05-15T14:20:33.823Z,6.80
2023-05-15T14:23:37.325Z,4.57
2023-05-15T14:26:40.142Z,5.30
2023-05-15T14:29:44.731Z,5.35
2023-05-15T14:32:47.502Z,7.15
2023-05-15T14:35:51.692Z,3.63
2023-05-15T14:38:54.442Z,6.20
2023-05-15T14:41:57.194Z,6.15
2023-05-15T14:44:59.960Z,3.83
2023-05-15T14:48:02.762Z,7.25
2023-05-15T14:51:07.613Z,6.65
2023-05-15T14:54:10.390Z,9.10
2023-05-15T14:57:13.607Z,4.72
2023-05-15T15:00:17.504Z,4.43
2023-05-15T15:03:21.888Z,4.07
2023-05-15T15:06:26.129Z,4.00
2023-05-15T15:09:29.166Z,4.90
2023-05-15T15:12:32.062Z,6.03
2023-05-15T15:15:35.600Z,6.75
2023-05-15T15:18:38.358Z,8.18
2023-05-15T15:21:43.233Z,8.23
2023-05-15T15:24:46.034Z,8.40
2023-05-15T15:27:49.553Z,16.95
2023-05-15T15:30:52.310Z,8.02
2023-05-15T15:33:55.094Z,15.80
2023-05-15T15:36:59.255Z,10.05
2023-05-15T15:40:02.966Z,4.10
2023-05-15T15:43:06.420Z,14.45
2023-05-15T15:46:09.557Z,11.00
2023-05-15T15:49:12.415Z,8.38
2023-05-15T15:52:17.156Z,12.02
2023-05-15T15:55:20.103Z,14.27
2023-05-15T15:58:22.962Z,10.85
2023-05-15T16:01:26.019Z,11.00
2023-05-15T16:04:28.925Z,5.80
2023-05-15T16:07:33.165Z,8.15
2023-05-15T16:10:36.278Z,9.85
2023-05-15T16:13:40.804Z,5.68
2023-05-15T16:16:43.918Z,7.75
2023-05-15T16:19:46.690Z,7.22
2023-05-15T16:22:51.116Z,6.32
2023-05-15T16:25:53.961Z,6.40
2023-05-15T16:28:56.916Z,5.15
2023-05-15T16:32:00.313Z,5.80
2023-05-15T16:35:03.131Z,7.05
2023-05-15T16:38:07.317Z,5.32
2023-05-15T16:41:10.701Z,5.35
2023-05-15T16:44:13.469Z,3.95
2023-05-15T16:47:16.588Z,4.15
2023-05-15T16:50:20.056Z,4.82
2023-05-15T16:53:24.565Z,5.68
2023-05-15T16:56:27.567Z,3.58
2023-05-15T16:59:30.361Z,5.63
2023-05-15T17:02:33.155Z,4.47
2023-05-15T17:05:35.959Z,3.97
2023-05-15T17:08:42.520Z,4.95
2023-05-15T17:11:45.311Z,3.53
2023-05-15T17:14:48.156Z,4.13
2023-05-15T17:17:51.129Z,3.65
2023-05-15T17:20:53.988Z,3.47
2023-05-15T17:23:58.193Z,7.38
2023-05-15T17:27:00.969Z,6.47
2023-05-15T17:30:03.789Z,4.32
2023-05-15T17:33:06.599Z,4.43
2023-05-15T17:36:09.760Z,4.90
2023-05-15T17:39:14.431Z,4.53
2023-05-15T17:42:17.309Z,4.10
2023-05-15T17:45:20.139Z,3.97
2023-05-15T17:48:22.924Z,6.18
2023-05-15T17:51:25.651Z,4.30
2023-05-15T17:54:30.016Z,5.18
2023-05-15T17:57:32.766Z,5.40
2023-05-15T18:00:35.547Z,3.83
2023-05-15T18:03:39.657Z,3.88
2023-05-15T18:06:44.492Z,4.50
2023-05-15T18:09:48.610Z,4.00
2023-05-15T18:12:51.468Z,3.58
2023-05-15T18:15:54.373Z,3.83
2023-05-15T18:18:57.439Z,3.10
2023-05-15T18:22:03.157Z,4.03
2023-05-15T18:25:08.037Z,3.35
2023-05-15T18:28:10.969Z,3.45
2023-05-15T18:31:13.740Z,2.95
2023-05-15T18:34:16.526Z,5.53
2023-05-15T18:37:19.326Z,4.32
2023-05-15T18:40:24.580Z,6.65
2023-05-15T18:43:27.568Z,4.05
2023-05-15T18:46:31.712Z,3.88
2023-05-15T18:49:34.909Z,3.80
2023-05-15T18:52:37.712Z,3.38
2023-05-15T18:55:42.201Z,3.22
2023-05-15T18:58:45.514Z,3.97
2023-05-15T19:01:49.172Z,3.85
2023-05-15T19:04:51.958Z,2.85
2023-05-15T19:07:55.238Z,2.40
2023-05-15T19:11:01.369Z,5.03
2023-05-15T19:14:04.463Z,3.67
2023-05-15T19:17:07.261Z,3.50
2023-05-15T19:20:10.925Z,3.90
2023-05-15T19:23:15.390Z,7.03
2023-05-15T19:26:21.647Z,3.58
2023-05-15T19:29:24.430Z,6.93
2023-05-15T19:32:27.771Z,4.15
2023-05-15T19:35:30.609Z,2.83
2023-05-15T19:38:33.423Z,2.45
2023-05-15T19:41:37.572Z,4.03
2023-05-15T19:44:40.383Z,3.88
2023-05-15T19:47:43.597Z,4.85
2023-05-15T19:50:46.957Z,3.08
2023-05-15T19:53:49.740Z,4.25
2023-05-15T19:56:54.024Z,2.70
2023-05-15T19:59:56.870Z,2.53
2023-05-15T20:03:00.461Z,3.70
2023-05-15T20:06:04.100Z,2.58
2023-05-15T20:09:06.877Z,3.22
2023-05-15T20:12:11.028Z,3.75
2023-05-15T20:15:14.966Z,2.63
2023-05-15T20:18:17.732Z,2.75
2023-05-15T20:21:20.500Z,3.55
2023-05-15T20:24:26.244Z,3.58
2023-05-15T20:27:30.417Z,3.50
2023-05-15T20:30:33.197Z,3.60
2023-05-15T20:33:36.082Z,4.63
2023-05-15T20:36:39.844Z,6.10
2023-05-15T20:39:42.557Z,2.92
2023-05-15T20:42:47.014Z,4.32
2023-05-15T20:45:49.821Z,3.22
2023-05-15T20:48:52.714Z,3.47
2023-05-15T20:51:55.475Z,4.07
2023-05-15T20:54:58.358Z,2.97
2023-05-15T20:58:02.660Z,2.42
2023-05-15T21:01:05.749Z,2.88
2023-05-15T21:04:08.729Z,2.88
2023-05-15T21:07:11.656Z,4.55
2023-05-15T21:10:14.475Z,2.78
2023-05-15T21:13:18.663Z,2.97
2023-05-15T21:16:21.509Z,3.25
2023-05-15T21:19:24.425Z,3.58
2023-05-15T21:22:27.320Z,3.00
2023-05-15T21:25:30.066Z,2.20
2023-05-15T21:28:34.262Z,3.38
2023-05-15T21:31:37.168Z,3.55
2023-05-15T21:34:40.788Z,2.95
2023-05-15T21:37:43.574Z,4.65
2023-05-15T21:40:46.374Z,3.42
2023-05-15T21:43:50.558Z,2.40
2023-05-15T21:46:53.664Z,3.17
2023-05-15T21:49:56.755Z,4.95
2023-05-15T21:52:59.831Z,5.13
2023-05-15T21:56:03.193Z,4.10
2023-05-15T21:59:07.370Z,4.18
2023-05-15T22:02:10.282Z,5.82
2023-05-15T22:05:13.376Z,2.53
2023-05-15T22:08:16.248Z,3.47
2023-05-15T22:11:19.044Z,3.15
2023-05-15T22:14:23.272Z,4.80
2023-05-15T22:17:27.235Z,3.10
2023-05-15T22:20:30.472Z,5.18
2023-05-15T22:23:33.261Z,2.53
2023-05-15T22:26:36.079Z,4.47
2023-05-15T22:29:40.291Z,5.90
2023-05-15T22:32:43.224Z,3.03
2023-05-15T22:35:46.191Z,7.35
2023-05-15T22:38:48.976Z,5.38
2023-05-15T22:41:51.778Z,6.38
2023-05-15T22:44:57.751Z,4.47
2023-05-15T22:48:01.629Z,4.85
2023-05-15T22:51:05.147Z,3.75
2023-05-15T22:54:08.172Z,4.72
2023-05-15T22:57:11.090Z,3.58
2023-05-15T23:00:16.641Z,3.10
2023-05-15T23:03:19.620Z,3.80
2023-05-15T23:06:22.424Z,3.03
2023-05-15T23:09:25.271Z,2.42
2023-05-15T23:12:28.171Z,4.80
2023-05-15T23:15:32.365Z,4.72
2023-05-15T23:18:35.368Z,3.10
2023-05-15T23:21:38.301Z,4.13
2023-05-15T23:24:41.177Z,3.45
2023-05-15T23:27:44.108Z,4.32
2023-05-15T23:30:48.532Z,3.97
2023-05-15T23:33:51.718Z,4.63
2023-05-15T23:36:54.654Z,3.20
2023-05-15T23:39:57.411Z,3.00
2023-05-15T23:43:00.220Z,4.50
2023-05-15T23:46:04.531Z,3.70
2023-05-15T23:49:07.416Z,4.50
2023-05-15T23:52:10.245Z,4.13
2023-05-15T23:55:13.410Z,2.80
2023-05-15T23:58:16.695Z,4.32
